Time;durP1;ratioP1;P1;durP2;ratioP2;P2;SDS_P1;SDS_P2;PMS_P1;PMS_P2;Temp;Humidity;BMP_temperature;BMP_pressure;BME280_temperature;BME280_humidity;BME280_pressure;Samples;Min_cycle;Max_cycle;Signal;HPM_P1;HPM_P2
2022/09/11 00:00:33;;;;;;;0.82;0.65;;;15.40;99.90;;;;;;4253160;33;20101;-78
2022/09/11 00:02:59;;;;;;;2.22;1.10;;;15.30;99.90;;;;;;4265417;33;20085;-77
2022/09/11 00:05:24;;;;;;;2.37;0.88;;;15.30;99.90;;;;;;4266279;33;20081;-78
2022/09/11 00:07:50;;;;;;;21.67;0.80;;;15.30;99.90;;;;;;4266078;33;20085;-77
2022/09/11 00:10:16;;;;;;;1.77;1.15;;;15.20;99.90;;;;;;4265877;33;20085;-77
2022/09/11 00:12:42;;;;;;;1.15;0.98;;;15.20;99.90;;;;;;4264929;33;20101;-78
2022/09/11 00:15:08;;;;;;;0.70;0.70;;;15.20;99.90;;;;;;4264442;33;20080;-78
2022/09/11 00:17:34;;;;;;;0.40;0.40;;;15.30;99.90;;;;;;4264291;33;21920;-78
2022/09/11 00:20:00;;;;;;;0.65;0.65;;;15.30;99.90;;;;;;4265394;33;20076;-77
2022/09/11 00:22:26;;;;;;;1.62;0.70;;;15.30;99.90;;;;;;4266990;33;20061;-78
2022/09/11 00:24:53;;;;;;;8.10;0.95;;;15.40;99.90;;;;;;4264134;33;20088;-78
2022/09/11 00:27:19;;;;;;;0.43;0.43;;;15.30;99.90;;;;;;4262647;33;20366;-78
2022/09/11 00:29:45;;;;;;;0.60;0.60;;;15.40;99.90;;;;;;4246164;33;20146;-78
2022/09/11 00:32:11;;;;;;;1.67;1.25;;;15.50;99.90;;;;;;4266382;33;20120;-78
2022/09/11 00:34:38;;;;;;;1.00;0.90;;;15.40;99.90;;;;;;4269419;33;20068;-78
2022/09/11 00:37:03;;;;;;;0.75;0.60;;;15.30;99.90;;;;;;4265600;33;20551;-78
2022/09/11 00:39:29;;;;;;;0.60;0.60;;;15.30;99.90;;;;;;4265529;33;20096;-78
2022/09/11 00:41:55;;;;;;;0.40;0.40;;;15.20;99.90;;;;;;4266891;33;20073;-78
2022/09/11 00:44:27;;;;;;;0.40;0.40;;;15.30;99.90;;;;;;4265318;33;20134;-78
2022/09/11 00:46:57;;;;;;;0.60;0.60;;;15.30;99.90;;;;;;4265502;33;20089;-78
2022/09/11 00:49:31;;;;;;;0.77;0.67;;;15.30;99.90;;;;;;4266814;33;20122;-78
2022/09/11 00:52:07;;;;;;;8.07;0.77;;;15.30;99.90;;;;;;4263498;33;20168;-77
2022/09/11 00:54:36;;;;;;;1.83;0.65;;;15.30;99.90;;;;;;4265439;33;20119;-78
2022/09/11 00:57:05;;;;;;;0.37;0.37;;;15.30;99.90;;;;;;4264638;33;20061;-78
2022/09/11 00:59:33;;;;;;;0.60;0.60;;;15.20;99.90;;;;;;4245271;33;20101;-78
2022/09/11 01:01:58;;;;;;;0.43;0.43;;;15.10;99.90;;;;;;4265557;33;20108;-78
2022/09/11 01:04:24;;;;;;;0.90;0.70;;;15.00;99.90;;;;;;4265130;33;20105;-78
2022/09/11 01:06:55;;;;;;;1.65;1.15;;;15.00;99.90;;;;;;4265878;33;20475;-78
2022/09/11 01:09:21;;;;;;;;;;;15.00;99.90;;;;;;4265247;33;20461;-78
2022/09/11 01:11:58;;;;;;;0.85;0.85;;;15.10;99.90;;;;;;4265259;33;19987;-78
2022/09/11 01:14:32;;;;;;;0.62;0.62;;;15.10;99.90;;;;;;4263148;33;20093;-78
2022/09/11 01:17:14;;;;;;;0.60;0.60;;;15.00;99.90;;;;;;4263840;33;20065;-78
2022/09/11 01:20:19;;;;;;;0.82;0.70;;;15.00;99.90;;;;;;4264650;33;20123;-76
2022/09/11 01:23:20;;;;;;;0.40;0.40;;;14.90;99.90;;;;;;4254257;33;20100;-78
2022/09/11 01:26:18;;;;;;;0.50;0.50;;;15.00;99.90;;;;;;4254548;33;20105;-78
2022/09/11 01:28:54;;;;;;;0.50;0.50;;;15.00;99.90;;;;;;4236611;33;20112;-77
2022/09/11 01:31:25;;;;;;;3.35;1.48;;;14.90;99.90;;;;;;4255775;33;20149;-77
2022/09/11 01:34:07;;;;;;;0.37;0.37;;;14.90;99.90;;;;;;4263335;33;20068;-77
2022/09/11 01:36:40;;;;;;;0.70;0.70;;;15.00;99.90;;;;;;4262803;33;20128;-77
2022/09/11 01:39:06;;;;;;;0.55;0.55;;;14.90;99.90;;;;;;4263592;33;20129;-77
2022/09/11 01:41:41;;;;;;;0.40;0.40;;;14.90;99.90;;;;;;4262917;33;20130;-77
2022/09/11 01:44:16;;;;;;;0.65;0.55;;;14.80;99.90;;;;;;4261896;33;20242;-78
2022/09/11 01:46:46;;;;;;;1.60;0.85;;;14.80;99.90;;;;;;4263117;33;20415;-76
2022/09/11 01:49:19;;;;;;;1.33;0.77;;;14.80;99.90;;;;;;4263425;33;20093;-77
2022/09/11 01:51:46;;;;;;;0.62;0.60;;;14.80;99.90;;;;;;4262690;33;20089;-77
2022/09/11 01:54:16;;;;;;;1.48;0.77;;;14.80;99.90;;;;;;4262580;33;20076;-76
2022/09/11 01:56:48;;;;;;;0.55;0.55;;;14.80;99.90;;;;;;4261833;33;20149;-76
2022/09/11 01:59:17;;;;;;;0.37;0.37;;;14.70;99.90;;;;;;4240347;33;20089;-77
2022/09/11 02:01:49;;;;;;;0.80;0.80;;;14.70;99.90;;;;;;4259526;33;20448;-76
2022/09/11 02:04:28;;;;;;;0.40;0.40;;;14.80;99.90;;;;;;4263710;33;20073;-77
2022/09/11 02:07:01;;;;;;;0.62;0.62;;;14.70;99.90;;;;;;4262980;33;20451;-76
2022/09/11 02:09:38;;;;;;;2.35;0.62;;;14.60;99.90;;;;;;4262180;33;20089;-76
2022/09/11 02:12:08;;;;;;;0.40;0.40;;;14.60;99.90;;;;;;4262611;33;20069;-77
2022/09/11 02:14:39;;;;;;;0.73;0.62;;;14.60;99.90;;;;;;4261826;33;20097;-76
2022/09/11 02:17:30;;;;;;;2.75;1.00;;;14.70;99.90;;;;;;4263545;33;20081;-77
2022/09/11 02:19:59;;;;;;;0.85;0.77;;;14.70;99.90;;;;;;4251775;33;20101;-77
2022/09/11 02:22:25;;;;;;;0.50;0.50;;;14.70;99.90;;;;;;4262939;33;20094;-76
2022/09/11 02:24:51;;;;;;;2.45;1.00;;;14.60;99.90;;;;;;4266334;33;20068;-76
2022/09/11 02:27:25;;;;;;;0.85;0.80;;;14.70;99.90;;;;;;4264875;33;20645;-76
2022/09/11 02:31:38;;;;;;;1.85;1.20;;;14.70;99.90;;;;;;4245992;33;20088;-78
2022/09/11 02:33:34;;;;;;;0.60;0.60;;;14.50;99.90;;;;;;4250433;33;20440;-77
2022/09/11 02:36:13;;;;;;;0.93;0.90;;;14.40;99.90;;;;;;4265311;33;20072;-78
2022/09/11 02:38:57;;;;;;;0.55;0.55;;;14.50;99.90;;;;;;4266850;33;20097;-77
2022/09/11 02:41:31;;;;;;;0.50;0.50;;;14.40;99.90;;;;;;4264119;33;20088;-78
2022/09/11 02:44:30;;;;;;;2.15;0.60;;;14.50;99.90;;;;;;4265035;33;20096;-78
2022/09/11 02:47:25;;;;;;;0.60;0.60;;;14.50;99.90;;;;;;4255239;33;20504;-78
2022/09/11 02:50:03;;;;;;;0.40;0.40;;;14.50;99.90;;;;;;4262812;33;20458;-78
2022/09/11 02:53:08;;;;;;;0.75;0.68;;;14.40;99.90;;;;;;4264896;33;20089;-78
2022/09/11 02:56:01;;;;;;;0.50;0.50;;;14.50;99.90;;;;;;4246331;33;20072;-78
2022/09/11 02:58:31;;;;;;;1.15;0.75;;;14.40;99.90;;;;;;4250664;33;20162;-78
2022/09/11 03:00:58;;;;;;;;;;;14.30;99.90;;;;;;4254695;33;20415;-78
2022/09/11 03:03:24;;;;;;;0.40;0.40;;;14.30;99.90;;;;;;4264994;33;19957;-78
2022/09/11 03:05:50;;;;;;;7.43;1.23;;;14.20;99.90;;;;;;4264546;33;20093;-78
2022/09/11 03:08:16;;;;;;;1.05;0.50;;;14.20;99.90;;;;;;4264051;33;20093;-78
2022/09/11 03:10:45;;;;;;;1.08;0.68;;;14.20;99.90;;;;;;4265506;33;20126;-77
2022/09/11 03:13:11;;;;;;;0.57;0.57;;;14.20;99.90;;;;;;4264865;33;20064;-78
2022/09/11 03:15:36;;;;;;;0.60;0.60;;;14.20;99.90;;;;;;4266018;33;20209;-77
2022/09/11 03:18:04;;;;;;;2.62;0.60;;;14.20;99.90;;;;;;4267168;33;20090;-78
2022/09/11 03:20:29;;;;;;;0.70;0.70;;;14.20;99.90;;;;;;4265393;33;20092;-78
2022/09/11 03:22:55;;;;;;;0.68;0.68;;;14.10;99.90;;;;;;4266046;33;20084;-78
2022/09/11 03:25:23;;;;;;;0.40;0.40;;;14.20;99.90;;;;;;4265435;33;20154;-78
2022/09/11 03:27:48;;;;;;;0.60;0.60;;;14.20;99.90;;;;;;4262491;33;20596;-78
2022/09/11 03:30:14;;;;;;;0.50;0.50;;;14.20;99.90;;;;;;4249252;33;20065;-77
2022/09/11 03:32:39;;;;;;;0.50;0.50;;;14.20;99.90;;;;;;4264216;33;20541;-78
2022/09/11 03:35:05;;;;;;;0.88;0.85;;;14.20;99.90;;;;;;4265436;33;20077;-78
2022/09/11 03:37:30;;;;;;;1.65;0.80;;;14.30;99.90;;;;;;4267859;33;20139;-78
2022/09/11 03:39:56;;;;;;;0.45;0.43;;;14.30;99.90;;;;;;4265475;33;20069;-78
2022/09/11 03:42:21;;;;;;;0.95;0.52;;;14.30;99.90;;;;;;4265860;33;20137;-78
2022/09/11 03:44:47;;;;;;;0.98;0.50;;;14.30;99.90;;;;;;4264153;33;20085;-78
2022/09/11 03:47:13;;;;;;;0.77;0.70;;;14.40;99.90;;;;;;4263438;33;20073;-77
2022/09/11 03:49:39;;;;;;;0.85;0.62;;;14.50;99.90;;;;;;4264735;33;20550;-78
2022/09/11 03:52:04;;;;;;;1.33;0.57;;;14.50;99.90;;;;;;4264866;33;20249;-77
2022/09/11 03:54:31;;;;;;;0.73;0.70;;;14.50;99.90;;;;;;4263979;33;20065;-78
2022/09/11 03:56:57;;;;;;;1.45;0.60;;;14.60;99.90;;;;;;4261970;33;20447;-78
2022/09/11 03:59:24;;;;;;;2.92;1.67;;;14.70;99.90;;;;;;4244652;33;20077;-78
2022/09/11 04:01:49;;;;;;;0.75;0.60;;;14.80;99.90;;;;;;4262120;33;20100;-78
2022/09/11 04:04:15;;;;;;;1.15;1.05;;;14.80;99.90;;;;;;4264047;33;20448;-78
2022/09/11 04:06:40;;;;;;;0.70;0.70;;;14.70;99.90;;;;;;4267896;33;20097;-78
2022/09/11 04:09:07;;;;;;;0.40;0.40;;;14.70;99.90;;;;;;4265328;33;20552;-76
2022/09/11 04:11:37;;;;;;;0.37;0.37;;;14.70;99.90;;;;;;4264255;33;20072;-77
2022/09/11 04:14:04;;;;;;;0.75;0.73;;;14.60;99.90;;;;;;4265990;33;20081;-78
2022/09/11 04:16:31;;;;;;;0.62;0.62;;;14.70;99.90;;;;;;4264160;33;20108;-78
2022/09/11 04:18:58;;;;;;;0.50;0.50;;;14.60;99.90;;;;;;4263325;33;20252;-77
2022/09/11 04:21:23;;;;;;;0.50;0.50;;;14.60;99.90;;;;;;4264540;33;20076;-76
2022/09/11 04:23:55;;;;;;;0.45;0.45;;;14.50;99.90;;;;;;4263588;33;20078;-77
2022/09/11 04:26:22;;;;;;;1.77;1.15;;;14.50;99.90;;;;;;4262601;33;20105;-77
2022/09/11 04:28:48;;;;;;;1.37;0.57;;;14.50;99.90;;;;;;4250279;33;20069;-77
2022/09/11 04:31:15;;;;;;;1.40;0.60;;;14.50;99.90;;;;;;4257109;33;20093;-77
2022/09/11 04:33:41;;;;;;;0.40;0.40;;;14.50;99.90;;;;;;4265471;33;20081;-77
2022/09/11 04:36:11;;;;;;;1.00;0.70;;;14.50;99.90;;;;;;4263784;33;20717;-77
2022/09/11 04:38:39;;;;;;;1.05;0.62;;;14.50;99.90;;;;;;4264443;33;20481;-77
2022/09/11 04:41:06;;;;;;;0.65;0.45;;;14.50;99.90;;;;;;4264524;33;20126;-77
2022/09/11 04:43:36;;;;;;;2.15;0.98;;;14.50;99.90;;;;;;4264201;33;20085;-77
2022/09/11 04:46:04;;;;;;;2.17;0.90;;;14.40;99.90;;;;;;4264287;33;20085;-78
2022/09/11 04:48:30;;;;;;;3.12;1.35;;;14.30;99.90;;;;;;4264898;33;20030;-77
2022/09/11 04:50:59;;;;;;;0.73;0.70;;;14.40;99.90;;;;;;4263693;33;20081;-77
2022/09/11 04:53:24;;;;;;;1.15;0.80;;;14.40;99.90;;;;;;4262630;33;20113;-77
2022/09/11 04:55:50;;;;;;;1.02;0.93;;;14.30;99.90;;;;;;4264205;33;20838;-77
2022/09/11 04:58:15;;;;;;;1.42;1.00;;;14.40;99.90;;;;;;4253091;33;20089;-77
2022/09/11 05:00:41;;;;;;;2.17;1.25;;;14.40;99.90;;;;;;4252618;33;20112;-77
2022/09/11 05:03:06;;;;;;;0.75;0.75;;;14.50;99.90;;;;;;4267468;33;20069;-78
2022/09/11 05:05:32;;;;;;;0.85;0.80;;;14.40;99.90;;;;;;4266058;33;20134;-77
2022/09/11 05:07:57;;;;;;;0.93;0.85;;;14.60;99.90;;;;;;4264485;33;20424;-77
2022/09/11 05:10:23;;;;;;;1.45;0.60;;;14.60;99.90;;;;;;4266109;33;20098;-77
2022/09/11 05:12:50;;;;;;;1.65;1.08;;;14.60;99.90;;;;;;4266313;33;20129;-78
2022/09/11 05:15:15;;;;;;;0.65;0.60;;;14.60;99.90;;;;;;4265927;33;20066;-77
2022/09/11 05:17:41;;;;;;;0.60;0.60;;;14.70;99.90;;;;;;4266335;33;20412;-78
2022/09/11 05:20:06;;;;;;;8.48;1.70;;;14.70;99.90;;;;;;4264676;33;20084;-77
2022/09/11 05:22:32;;;;;;;1.10;0.70;;;14.70;99.90;;;;;;4264320;33;20081;-77
2022/09/11 05:24:57;;;;;;;4.20;1.12;;;14.70;99.90;;;;;;4264010;33;20510;-77
2022/09/11 05:27:23;;;;;;;0.62;0.62;;;14.70;99.90;;;;;;4260314;33;20081;-77
2022/09/11 05:29:48;;;;;;;0.35;0.35;;;14.70;99.90;;;;;;4242885;33;20124;-77
2022/09/11 05:32:13;;;;;;;1.30;1.08;;;14.70;99.90;;;;;;4265185;33;20069;-77
2022/09/11 05:34:39;;;;;;;4.05;1.12;;;14.70;99.90;;;;;;4265133;33;20109;-77
2022/09/11 05:37:05;;;;;;;9.55;1.12;;;14.80;99.90;;;;;;4265298;33;20126;-78
2022/09/11 05:39:30;;;;;;;3.28;1.25;;;14.80;99.90;;;;;;4263618;33;20076;-77
2022/09/11 05:41:56;;;;;;;2.35;0.95;;;14.80;99.90;;;;;;4263415;33;20100;-77
2022/09/11 05:44:21;;;;;;;1.12;1.05;;;14.90;99.90;;;;;;4263344;33;20193;-77
2022/09/11 05:46:47;;;;;;;2.35;1.42;;;14.90;99.90;;;;;;4263159;33;20523;-78
2022/09/11 05:49:13;;;;;;;13.90;1.08;;;15.00;99.90;;;;;;4263506;33;20179;-78
2022/09/11 05:51:40;;;;;;;0.95;0.65;;;15.00;99.90;;;;;;4262857;33;20130;-78
2022/09/11 05:54:06;;;;;;;2.92;0.93;;;15.00;99.90;;;;;;4264863;33;20081;-78
2022/09/11 05:56:31;;;;;;;0.50;0.50;;;15.00;99.90;;;;;;4263045;33;20131;-78
2022/09/11 05:58:57;;;;;;;0.47;0.47;;;15.00;99.90;;;;;;4246492;33;20084;-78
2022/09/11 06:01:25;;;;;;;2.78;0.65;;;15.00;99.90;;;;;;4260472;33;20444;-78
2022/09/11 06:03:51;;;;;;;1.23;0.82;;;15.00;99.90;;;;;;4265600;33;20102;-78
2022/09/11 06:06:20;;;;;;;4.87;1.73;;;14.90;99.90;;;;;;4264727;33;20222;-78
2022/09/11 06:08:46;;;;;;;4.32;0.90;;;15.00;99.90;;;;;;4267936;33;20869;-78
2022/09/11 06:11:14;;;;;;;1.33;1.00;;;14.90;99.90;;;;;;4263513;33;20065;-78
2022/09/11 06:13:41;;;;;;;2.55;1.27;;;15.00;99.90;;;;;;4263398;33;20198;-77
2022/09/11 06:16:10;;;;;;;4.03;0.62;;;15.00;99.90;;;;;;4264976;33;20126;-78
2022/09/11 06:18:36;;;;;;;3.80;1.65;;;15.10;99.90;;;;;;4264916;33;20088;-77
2022/09/11 06:21:06;;;;;;;20.73;0.82;;;15.10;99.90;;;;;;4265626;33;20085;-78
2022/09/11 06:23:31;;;;;;;1.80;1.10;;;15.10;99.90;;;;;;4265646;33;20086;-78
2022/09/11 06:26:07;;;;;;;2.12;0.70;;;15.20;99.90;;;;;;4266036;33;20141;-78
2022/09/11 06:28:34;;;;;;;1.52;0.80;;;15.20;99.90;;;;;;4256413;33;20140;-78
2022/09/11 06:31:01;;;;;;;0.65;0.65;;;15.20;99.90;;;;;;4256251;33;20069;-78
2022/09/11 06:33:32;;;;;;;0.68;0.68;;;15.30;99.90;;;;;;4267315;33;20072;-78
2022/09/11 06:35:59;;;;;;;7.22;1.12;;;15.30;99.90;;;;;;4267009;33;20570;-78
2022/09/11 06:38:25;;;;;;;2.30;1.50;;;15.40;99.90;;;;;;4267189;33;20219;-77
2022/09/11 06:40:51;;;;;;;2.35;1.08;;;15.40;99.90;;;;;;4265099;33;20093;-77
2022/09/11 06:43:17;;;;;;;0.70;0.70;;;15.40;99.90;;;;;;4265133;33;20409;-77
2022/09/11 06:45:42;;;;;;;3.40;1.27;;;15.40;99.90;;;;;;4266893;33;20070;-77
2022/09/11 06:48:08;;;;;;;1.48;0.57;;;15.50;99.90;;;;;;4268032;33;20072;-77
2022/09/11 06:50:39;;;;;;;0.57;0.57;;;15.50;99.90;;;;;;4265488;33;20088;-77
2022/09/11 06:53:05;;;;;;;2.05;1.30;;;15.70;99.90;;;;;;4266562;33;20170;-77
2022/09/11 06:55:31;;;;;;;0.80;0.80;;;15.70;99.90;;;;;;4262783;33;20147;-77
2022/09/11 06:57:56;;;;;;;1.02;0.88;;;15.80;99.90;;;;;;4257705;33;20076;-77
2022/09/11 07:00:28;;;;;;;0.80;0.77;;;15.80;99.90;;;;;;4249880;33;20117;-77
2022/09/11 07:02:55;;;;;;;0.60;0.60;;;15.90;99.90;;;;;;4265853;33;20085;-78
2022/09/11 07:05:21;;;;;;;3.08;1.20;;;15.90;99.90;;;;;;4264190;33;20530;-78
2022/09/11 07:07:49;;;;;;;1.08;1.00;;;15.90;99.90;;;;;;4266132;33;20424;-77
2022/09/11 07:10:15;;;;;;;4.20;1.40;;;15.80;99.90;;;;;;4264960;33;20112;-77
2022/09/11 07:12:40;;;;;;;0.73;0.73;;;15.80;99.90;;;;;;4264591;33;20124;-77
2022/09/11 07:15:07;;;;;;;3.70;0.98;;;15.80;99.90;;;;;;4264553;33;20086;-77
2022/09/11 07:17:33;;;;;;;4.40;0.85;;;15.80;99.90;;;;;;4265832;33;20468;-77
2022/09/11 07:19:59;;;;;;;0.60;0.60;;;15.90;99.90;;;;;;4265127;33;20061;-77
2022/09/11 07:22:24;;;;;;;2.37;1.15;;;15.90;99.90;;;;;;4264139;33;20424;-77
2022/09/11 07:24:53;;;;;;;0.88;0.88;;;15.90;99.90;;;;;;4264043;33;20096;-77
2022/09/11 07:27:19;;;;;;;1.35;1.00;;;15.90;99.90;;;;;;4261382;33;20096;-78
2022/09/11 07:29:45;;;;;;;0.50;0.50;;;15.90;99.90;;;;;;4243624;33;20219;-77
2022/09/11 07:32:11;;;;;;;1.48;0.98;;;15.90;99.90;;;;;;4265153;33;20130;-77
2022/09/11 07:34:36;;;;;;;1.40;0.60;;;16.00;99.90;;;;;;4265323;33;20128;-78
2022/09/11 07:37:02;;;;;;;3.50;1.37;;;16.00;99.90;;;;;;4263394;33;20142;-77
2022/09/11 07:39:27;;;;;;;0.88;0.88;;;16.00;99.90;;;;;;4265592;33;20514;-77
2022/09/11 07:41:53;;;;;;;1.50;1.00;;;16.10;99.90;;;;;;4264724;33;20072;-77
2022/09/11 07:44:19;;;;;;;8.40;1.80;;;16.10;99.90;;;;;;4265478;33;20086;-77
2022/09/11 07:46:44;;;;;;;2.58;0.88;;;16.20;99.90;;;;;;4263865;33;20515;-77
2022/09/11 07:49:10;;;;;;;0.80;0.80;;;16.30;99.90;;;;;;4261960;33;20090;-77
2022/09/11 07:51:37;;;;;;;2.28;0.75;;;16.30;99.90;;;;;;4260995;33;20115;-77
2022/09/11 07:54:02;;;;;;;0.50;0.50;;;16.40;99.90;;;;;;4262139;33;20096;-78
2022/09/11 07:56:29;;;;;;;0.57;0.57;;;16.40;99.90;;;;;;4262472;33;20073;-78
2022/09/11 07:58:56;;;;;;;0.70;0.65;;;16.50;99.90;;;;;;4246093;33;20388;-77
2022/09/11 08:01:26;;;;;;;0.62;0.62;;;16.60;99.90;;;;;;4258493;33;20077;-78
2022/09/11 08:03:57;;;;;;;1.13;0.80;;;16.70;99.90;;;;;;4264659;33;20429;-78
2022/09/11 08:06:23;;;;;;;0.70;0.70;;;16.70;99.90;;;;;;4264120;33;20065;-77
2022/09/11 08:08:53;;;;;;;1.48;1.17;;;16.80;99.90;;;;;;4263609;33;20061;-77
2022/09/11 08:11:19;;;;;;;1.25;0.90;;;16.90;99.90;;;;;;4263067;33;20068;-77
2022/09/11 08:13:49;;;;;;;0.60;0.60;;;17.00;99.90;;;;;;4264579;33;20089;-78
2022/09/11 08:16:16;;;;;;;2.83;1.13;;;17.10;99.90;;;;;;4265916;33;20168;-78
2022/09/11 08:18:41;;;;;;;2.12;0.90;;;17.20;99.90;;;;;;4264790;33;20642;-78
2022/09/11 08:21:08;;;;;;;0.60;0.60;;;17.20;99.90;;;;;;4264267;33;20073;-77
2022/09/11 08:23:35;;;;;;;1.65;0.60;;;17.30;99.90;;;;;;4262969;33;20068;-77
2022/09/11 08:26:20;;;;;;;0.73;0.73;;;17.40;99.90;;;;;;4262649;33;20100;-77
2022/09/11 08:28:46;;;;;;;2.05;0.73;;;17.30;99.90;;;;;;4249453;33;20436;-77
2022/09/11 08:31:12;;;;;;;1.65;1.02;;;17.40;99.90;;;;;;4256152;33;20097;-77
2022/09/11 08:33:38;;;;;;;0.50;0.50;;;17.40;99.90;;;;;;4261496;33;89752;-77
2022/09/11 08:36:07;;;;;;;0.85;0.75;;;17.50;99.90;;;;;;4262560;33;20137;-77
2022/09/11 08:38:32;;;;;;;0.60;0.60;;;17.50;99.90;;;;;;4247304;33;20514;-78
2022/09/11 08:41:10;;;;;;;1.10;0.77;;;17.60;99.90;;;;;;4264620;33;20081;-77
2022/09/11 08:43:43;;;;;;;2.25;0.82;;;17.60;99.90;;;;;;4262517;33;20108;-77
2022/09/11 08:46:10;;;;;;;0.70;0.47;;;17.70;99.90;;;;;;4263508;33;20100;-77
2022/09/11 08:49:07;;;;;;;0.70;0.68;;;17.80;99.90;;;;;;4263754;33;20072;-77
2022/09/11 08:51:33;;;;;;;4.20;0.70;;;17.90;99.90;;;;;;4252109;33;20184;-77
2022/09/11 08:54:00;;;;;;;1.12;0.90;;;17.90;99.90;;;;;;4263575;33;20855;-77
2022/09/11 08:56:29;;;;;;;0.50;0.50;;;18.00;99.90;;;;;;4262254;33;20451;-77
2022/09/11 08:59:21;;;;;;;0.77;0.77;;;18.10;99.90;;;;;;4245473;33;20092;-77
2022/09/11 09:02:12;;;;;;;1.05;0.85;;;18.10;99.90;;;;;;4250667;33;20080;-77
2022/09/11 09:05:09;;;;;;;14.20;0.65;;;18.10;99.90;;;;;;4264027;33;20546;-77
2022/09/11 09:07:45;;;;;;;0.70;0.70;;;18.10;99.90;;;;;;4255370;33;20089;-77
2022/09/11 09:10:37;;;;;;;0.82;0.50;;;18.10;99.90;;;;;;4261321;33;20156;-77
2022/09/11 09:13:14;;;;;;;2.03;1.10;;;18.00;99.90;;;;;;4252314;33;20124;-77
2022/09/11 09:15:48;;;;;;;1.95;0.77;;;17.90;99.90;;;;;;4262674;33;20092;-77
2022/09/11 09:18:29;;;;;;;1.10;0.80;;;17.90;99.90;;;;;;4263332;33;20084;-77
2022/09/11 09:21:03;;;;;;;0.60;0.60;;;17.80;99.90;;;;;;4264171;33;20077;-77
2022/09/11 09:23:36;;;;;;;0.45;0.45;;;17.90;99.90;;;;;;4263218;33;20092;-77
2022/09/11 09:26:02;;;;;;;3.03;0.95;;;18.00;99.90;;;;;;4260711;33;20061;-77
2022/09/11 09:28:43;;;;;;;0.55;0.55;;;18.00;99.90;;;;;;4250613;33;20510;-78
2022/09/11 09:31:13;;;;;;;0.52;0.52;;;18.10;99.90;;;;;;4255949;33;20126;-78
2022/09/11 09:33:43;;;;;;;0.60;0.60;;;18.10;99.90;;;;;;4263406;33;20080;-77
2022/09/11 09:36:17;;;;;;;0.70;0.70;;;18.10;99.90;;;;;;4264615;33;20085;-77
2022/09/11 09:38:43;;;;;;;4.37;0.80;;;18.30;99.90;;;;;;4266316;33;20096;-77
2022/09/11 09:41:25;;;;;;;0.40;0.40;;;18.30;99.90;;;;;;4265965;33;20105;-77
2022/09/11 09:44:30;;;;;;;0.50;0.50;;;18.50;99.90;;;;;;4265747;33;20093;-78
2022/09/11 09:46:56;;;;;;;0.40;0.40;;;18.70;99.90;;;;;;4253703;33;20096;-78
2022/09/11 09:49:26;;;;;;;0.40;0.40;;;18.80;99.90;;;;;;4265828;33;20080;-77
2022/09/11 09:51:55;;;;;;;2.40;0.80;;;18.90;99.90;;;;;;4264923;33;20101;-78
2022/09/11 09:54:25;;;;;;;0.95;0.77;;;18.80;99.90;;;;;;4265693;33;20188;-78
2022/09/11 09:56:58;;;;;;;0.50;0.50;;;18.80;99.90;;;;;;4265091;33;20078;-78
2022/09/11 09:59:33;;;;;;;0.60;0.32;;;18.70;99.90;;;;;;4244217;33;20840;-78
2022/09/11 10:01:58;;;;;;;0.85;0.85;;;18.70;99.90;;;;;;4264263;33;20408;-78
2022/09/11 10:04:26;;;;;;;0.50;0.50;;;18.80;99.90;;;;;;4267496;33;20319;-78
2022/09/11 10:07:03;;;;;;;1.62;1.25;;;18.90;99.90;;;;;;4266111;33;20379;-78
2022/09/11 10:09:29;;;;;;;0.60;0.60;;;19.00;99.90;;;;;;4266528;33;20077;-78
2022/09/11 10:12:01;;;;;;;0.40;0.40;;;19.00;99.90;;;;;;4266169;33;20096;-78
2022/09/11 10:14:31;;;;;;;0.60;0.60;;;18.90;99.90;;;;;;4265644;33;20135;-77
2022/09/11 10:16:57;;;;;;;0.43;0.43;;;18.80;99.90;;;;;;4264521;33;20073;-77
2022/09/11 10:19:41;;;;;;;1.50;0.70;;;18.80;99.90;;;;;;4264485;33;20081;-77
2022/09/11 10:22:28;;;;;;;0.80;0.80;;;18.80;99.90;;;;;;4265575;33;20088;-78
2022/09/11 10:25:02;;;;;;;0.65;0.65;;;18.70;99.90;;;;;;4255416;33;20403;-77
2022/09/11 10:27:34;;;;;;;0.62;0.62;;;18.70;99.90;;;;;;4262280;33;20092;-77
2022/09/11 10:30:00;;;;;;;1.12;0.75;;;18.70;99.90;;;;;;4250135;33;20123;-77
2022/09/11 10:32:27;;;;;;;4.22;1.00;;;18.80;99.90;;;;;;4265100;33;20354;-77
2022/09/11 10:34:54;;;;;;;1.27;0.62;;;18.90;99.90;;;;;;4264436;33;20081;-77
2022/09/11 10:37:30;;;;;;;0.50;0.50;;;19.00;99.90;;;;;;4265943;33;20097;-77
2022/09/11 10:40:07;;;;;;;3.22;1.00;;;19.00;99.90;;;;;;4266103;33;20089;-77
2022/09/11 10:42:34;;;;;;;0.80;0.65;;;19.10;99.90;;;;;;4265813;33;20809;-78
2022/09/11 10:45:15;;;;;;;0.47;0.47;;;19.10;99.90;;;;;;4265465;33;20120;-77
2022/09/11 10:47:41;;;;;;;0.40;0.40;;;19.10;99.90;;;;;;4264035;33;20135;-77
2022/09/11 10:50:24;;;;;;;0.50;0.50;;;19.10;99.90;;;;;;4264447;33;20065;-78
2022/09/11 10:53:04;;;;;;;0.57;0.55;;;19.20;99.90;;;;;;4265562;33;20214;-77
2022/09/11 10:55:36;;;;;;;0.83;0.80;;;19.30;99.90;;;;;;4265614;33;20129;-77
2022/09/11 10:58:09;;;;;;;0.60;0.60;;;19.40;99.90;;;;;;4257315;33;20147;-77
2022/09/11 11:00:37;;;;;;;0.50;0.50;;;19.60;99.90;;;;;;4251235;33;20073;-77
2022/09/11 11:03:23;;;;;;;0.75;0.43;;;19.80;99.90;;;;;;4265658;33;20077;-76
2022/09/11 11:05:53;;;;;;;0.50;0.50;;;19.80;99.90;;;;;;4253445;33;20132;-77
2022/09/11 11:08:59;;;;;;;0.83;0.60;;;19.70;99.90;;;;;;4263130;33;20138;-78
2022/09/11 11:11:51;;;;;;;0.50;0.50;;;19.60;99.90;;;;;;4258302;33;20130;-78
2022/09/11 11:14:47;;;;;;;3.17;0.70;;;19.70;99.90;;;;;;4254742;33;20093;-78
2022/09/11 11:17:42;;;;;;;1.85;0.50;;;19.70;99.90;;;;;;4256012;33;20077;-78
2022/09/11 11:20:25;;;;;;;0.77;0.57;;;19.60;99.90;;;;;;4264491;33;20109;-78
2022/09/11 11:23:24;;;;;;;1.92;0.80;;;19.60;99.90;;;;;;4264918;33;20069;-78
2022/09/11 11:26:01;;;;;;;7.03;1.50;;;19.60;99.90;;;;;;4255540;33;20456;-78
2022/09/11 11:28:54;;;;;;;0.50;0.50;;;19.50;99.90;;;;;;4253314;33;20081;-78
2022/09/11 11:31:35;;;;;;;0.40;0.40;;;19.40;99.90;;;;;;4257718;33;20109;-78
2022/09/11 11:34:21;;;;;;;;;;;19.30;99.90;;;;;;4264209;33;20093;-77
2022/09/11 11:37:26;;;;;;;1.23;0.62;;;19.30;99.90;;;;;;4263399;33;20077;-78
2022/09/11 11:40:01;;;;;;;0.57;0.57;;;19.20;99.90;;;;;;4254964;33;20068;-78
2022/09/11 11:42:33;;;;;;;0.40;0.40;;;19.10;99.90;;;;;;4264858;33;20116;-77
2022/09/11 11:45:08;;;;;;;1.20;0.50;;;19.10;99.90;;;;;;4265703;33;20089;-77
2022/09/11 11:47:41;;;;;;;0.82;0.47;;;19.10;99.90;;;;;;4263845;33;21308;-78
2022/09/11 11:50:40;;;;;;;0.95;0.93;;;19.10;99.90;;;;;;4265255;33;20482;-78
2022/09/11 11:53:19;;;;;;;0.40;0.40;;;19.00;99.90;;;;;;4252826;33;20179;-78
2022/09/11 11:55:53;;;;;;;1.25;0.65;;;18.90;99.90;;;;;;4265619;33;20065;-78
2022/09/11 11:58:36;;;;;;;0.50;0.50;;;18.90;99.90;;;;;;4254281;33;20678;-78
2022/09/11 12:01:05;;;;;;;0.40;0.40;;;19.00;99.90;;;;;;4257297;33;20401;-78
2022/09/11 12:03:42;;;;;;;0.47;0.47;;;19.10;99.90;;;;;;4264967;33;20093;-78
2022/09/11 12:06:08;;;;;;;0.50;0.50;;;19.10;99.90;;;;;;4264920;33;20123;-78
2022/09/11 12:08:43;;;;;;;0.40;0.40;;;19.20;99.90;;;;;;4266629;33;20080;-78
2022/09/11 12:11:12;;;;;;;0.40;0.40;;;19.30;99.90;;;;;;4264204;33;20092;-78
2022/09/11 12:13:43;;;;;;;0.52;0.43;;;19.30;99.90;;;;;;4264410;33;20069;-78
2022/09/11 12:16:23;;;;;;;0.50;0.50;;;19.30;99.90;;;;;;4264703;33;20066;-77
2022/09/11 12:19:13;;;;;;;0.77;0.50;;;19.40;99.90;;;;;;4263039;33;20092;-77
2022/09/11 12:22:01;;;;;;;0.70;0.70;;;19.60;99.90;;;;;;4264887;33;20465;-78
2022/09/11 12:24:51;;;;;;;0.30;0.30;;;19.70;99.90;;;;;;4252570;33;20089;-78
2022/09/11 12:27:38;;;;;;;0.80;0.80;;;19.80;99.90;;;;;;4251327;33;20099;-78
2022/09/11 12:30:17;;;;;;;0.90;0.73;;;19.90;99.90;;;;;;4236689;33;20121;-78
2022/09/11 12:32:53;;;;;;;0.60;0.60;;;19.90;99.90;;;;;;4264803;33;20467;-78
2022/09/11 12:35:33;;;;;;;0.57;0.57;;;19.80;99.90;;;;;;4264732;33;20094;-78
2022/09/11 12:38:09;;;;;;;0.37;0.37;;;19.80;99.90;;;;;;4264451;33;20525;-77
2022/09/11 12:40:50;;;;;;;0.30;0.30;;;19.80;99.90;;;;;;4264645;33;20081;-78
2022/09/11 12:43:25;;;;;;;;;;;19.80;99.90;;;;;;4251873;33;20081;-78
2022/09/11 12:45:51;;;;;;;0.57;0.57;;;19.80;99.90;;;;;;4249361;33;20374;-78
2022/09/11 12:48:21;;;;;;;0.40;0.40;;;19.80;99.90;;;;;;4265345;33;20080;-77
2022/09/11 12:50:49;;;;;;;0.40;0.40;;;19.90;99.90;;;;;;4262512;33;20096;-78
2022/09/11 12:53:22;;;;;;;0.55;0.55;;;19.80;99.90;;;;;;4263610;33;20077;-78
2022/09/11 12:56:06;;;;;;;0.82;0.82;;;19.80;99.90;;;;;;4262473;33;20110;-77
2022/09/11 12:58:43;;;;;;;0.40;0.40;;;19.80;99.90;;;;;;4253124;33;20584;-77
2022/09/11 13:01:12;;;;;;;0.55;0.55;;;19.80;99.90;;;;;;4259480;33;20065;-78
2022/09/11 13:03:47;;;;;;;1.85;0.62;;;19.70;99.90;;;;;;4265736;33;20061;-78
2022/09/11 13:06:14;;;;;;;0.40;0.40;;;19.60;99.90;;;;;;4265922;33;20127;-77
2022/09/11 13:08:52;;;;;;;0.52;0.52;;;19.50;99.90;;;;;;4265061;33;20069;-78
2022/09/11 13:11:36;;;;;;;0.40;0.40;;;19.50;99.90;;;;;;4265960;33;20104;-78